Nearby METAR Reports

 

EGMC - Southend-On-Sea, United Kingdom
Distance from station: NE 10km
Updated: 20/06/2019 17:50
Clear
Clear
 Wind from SW
Wind: SW 15 mph , 24 km/h
Temperature: 18°C
Dew Point: 9°C
Humidity: 56%
Barometer: 1013 hPa
Summary: Clear
Visibility: greater than 7 miles , 10 km
2019/06/20 16:50 EGMC 201650Z 22013KT CAVOK 18/09 Q1013
EGLC - London City Airp, United Kingdom
Distance from station: W 37km
Updated: 20/06/2019 17:50
Mostly cloudy
Mostly cloudy
 Wind from WSW
Wind: WSW 13 mph , 20 km/h
Temperature: 20°C
Dew Point: 8°C
Humidity: 46%
Barometer: 1013 hPa
Clouds: Mostly cloudy
Visibility: 6 miles , 10 km
Cloud details: Mostly cloudy 1372 m
2019/06/20 16:50 EGLC 201650Z AUTO 24011KT 9999 BKN045 20/08 Q1013
EGKB - Biggin Hill, United Kingdom
Distance from station: WSW 45km
Updated: 20/06/2019 17:50
Few Clouds
Few Clouds
 Wind from SW
Wind: SW 12 mph , 19 km/h
Temperature: 16°C
Dew Point: 11°C
Humidity: 72%
Barometer: 1014 hPa
Clouds: Few Clouds
Visibility: 6 miles , 10 km
Cloud details: Few Clouds 1219 m
2019/06/20 16:50 EGKB 201650Z 23010KT 200V270 9999 FEW040 16/11 Q1014
 
EGSS - Stansted Airport, United Kingdom
Distance from station: NNW 48km
Updated: 20/06/2019 17:50
Partly cloudy
Partly cloudy
 Wind from W
Wind: W 12 mph , 19 km/h
Temperature: 18°C
Dew Point: 9°C
Humidity: 56%
Barometer: 1013 hPa
Clouds: Partly cloudy
Visibility: 6 miles , 10 km
Cloud details: Partly cloudy 1280 m
2019/06/20 16:50 EGSS 201650Z AUTO 27010KT 9999 SCT042 18/09 Q1013
EGKK - London/Gatwick A, United Kingdom
Distance from station: SW 67km
Updated: 20/06/2019 17:50
Clear
Clear
 Wind from SW
Wind: SW 12 mph , 19 km/h
Temperature: 16°C
Dew Point: 9°C
Humidity: 63%
Barometer: 1014 hPa
Summary: Clear
Visibility: greater than 7 miles , 10 km
2019/06/20 16:50 EGKK 201650Z 23010KT CAVOK 16/09 Q1014
EGMD - Lydd Airport, United Kingdom
Distance from station: SSE 67km
Updated: 20/06/2019 17:50
Few Clouds
Few Clouds
 Wind from WSW
Wind: WSW 25 mph , 41 km/h
Temperature: 17°C
Dew Point: 13°C
Humidity: 77%
Barometer: 1014 hPa
Clouds: Few Clouds
Visibility: 6 miles , 10 km
Cloud details: Few Clouds 1372 m
2019/06/20 16:50 EGMD 201650Z 24022KT 9999 FEW045 17/13 Q1014
 
EGWU - Northolt Raf, United Kingdom
Distance from station: W 69km
Updated: 20/06/2019 17:50
Mostly cloudy
Mostly cloudy
 Wind from WSW
Wind: WSW 13 mph , 20 km/h, Gust: 31 mph , 50 km/h
Temperature: 18°C
Dew Point: 9°C
Humidity: 56%
Barometer: 1013 hPa
Clouds: Mostly cloudy
Visibility: 6 miles , 10 km
Cloud details: Few Clouds 1219 m
Mostly cloudy 2134 m
2019/06/20 16:50 EGWU 201650Z 25011G27KT 9999 FEW040 BKN070 18/09 Q1013 NOSIG RMK BLU BLU
EGLL - London/Heathrow, United Kingdom
Distance from station: W 72km
Updated: 20/06/2019 17:50
Mostly cloudy
Mostly cloudy
 Wind from SW
Wind: SW 14 mph , 22 km/h
Temperature: 18°C
Dew Point: 9°C
Humidity: 56%
Barometer: 1014 hPa
Clouds: Mostly cloudy
Visibility: 6 miles , 10 km
Cloud details: Mostly cloudy 1341 m
2019/06/20 16:50 EGLL 201650Z AUTO 23012KT 9999 BKN044 18/09 Q1014
EGUW - Wattisham Raf, United Kingdom
Distance from station: NNE 72km
Updated: 20/06/2019 17:50
Mostly cloudy
Mostly cloudy
 Wind from W
Wind: W 8 mph , 13 km/h
Temperature: 17°C
Dew Point: 10°C
Humidity: 64%
Barometer: 1012 hPa
Clouds: Mostly cloudy
Visibility: 6 miles , 10 km
Cloud details: Few Clouds 1372 m
Mostly cloudy 1829 m
2019/06/20 16:50 EGUW 201650Z 28007KT 9999 FEW045 BKN060 17/10 Q1012 NOSIG RMK BLU BLU
 
EGGW - Luton Airport, United Kingdom
Distance from station: WNW 76km
Updated: 20/06/2019 17:50
Few Clouds
Few Clouds
 Wind from NW
Wind: NW 6 mph , 9 km/h
Temperature: 17°C
Dew Point: 9°C
Humidity: 59%
Barometer: 1013 hPa
Clouds: Few Clouds
Visibility: 6 miles , 10 km
Cloud details: Few Clouds 1311 m
2019/06/20 16:50 EGGW 201650Z AUTO 31005KT 270V350 9999 FEW043 17/09 Q1013
EGSC - Cambridge, United Kingdom
Distance from station: NNW 81km
Updated: 20/06/2019 17:20
Few Clouds
Few Clouds
 Wind from W
Wind: W 14 mph , 22 km/h
Temperature: 19°C
Dew Point: 9°C
Humidity: 52%
Barometer: 1012 hPa
Clouds: Few Clouds
Visibility: 6 miles , 10 km
Cloud details: Few Clouds 1219 m
2019/06/20 16:20 EGSC 201620Z 28012KT 240V300 9999 FEW040 19/09 Q1012